createdAt,value
2023-05-10T00:01:55.633Z,100147.91
2023-05-10T00:04:23.753Z,100155.28
2023-05-10T00:06:51.775Z,100151.75
2023-05-10T00:09:21.281Z,100152.28
2023-05-10T00:11:49.273Z,100159.66
2023-05-10T00:14:17.312Z,100155.81
2023-05-10T00:16:45.368Z,100161.28
2023-05-10T00:19:14.431Z,100161.00
2023-05-10T00:21:42.476Z,100162.38
2023-05-10T00:24:10.530Z,100168.38
2023-05-10T00:26:39.889Z,100168.13
2023-05-10T00:29:07.852Z,100173.84
2023-05-10T00:31:36.007Z,100170.81
2023-05-10T00:34:03.993Z,100170.56
2023-05-10T00:36:32.367Z,100168.94
2023-05-10T00:39:00.542Z,100173.84
2023-05-10T00:41:28.559Z,100174.41
2023-05-10T00:43:57.940Z,100180.13
2023-05-10T00:46:26.520Z,100171.66
2023-05-10T00:48:54.896Z,100178.50
2023-05-10T00:51:23.092Z,100181.50
2023-05-10T00:53:52.592Z,100183.13
2023-05-10T00:56:21.678Z,100183.16
2023-05-10T00:58:49.682Z,100185.06
2023-05-10T01:01:19.182Z,100181.22
2023-05-10T01:03:47.981Z,100185.31
2023-05-10T01:06:16.029Z,100182.59
2023-05-10T01:08:44.368Z,100180.13
2023-05-10T01:11:15.514Z,100179.59
2023-05-10T01:13:59.787Z,100181.50
2023-05-10T01:17:12.859Z,100178.22
2023-05-10T01:19:54.369Z,100180.44
2023-05-10T01:23:25.941Z,100173.88
2023-05-10T01:26:15.813Z,100182.34
2023-05-10T01:39:22.246Z,100183.16
2023-05-10T01:41:56.947Z,100172.22
2023-05-10T01:44:33.708Z,100173.31
2023-05-10T01:47:08.311Z,100173.06
2023-05-10T01:49:42.460Z,100173.59
2023-05-10T01:52:15.002Z,100180.97
2023-05-10T01:54:46.959Z,100182.59
2023-05-10T01:57:17.652Z,100180.41
2023-05-10T01:59:51.453Z,100179.84
2023-05-10T02:02:21.251Z,100190.16
2023-05-10T02:04:51.771Z,100183.63
2023-05-10T02:07:22.366Z,100188.50
2023-05-10T02:09:50.514Z,100182.72
2023-05-10T02:12:20.237Z,100193.91
2023-05-10T02:14:49.930Z,100193.91
2023-05-10T02:17:18.908Z,100195.28
2023-05-10T02:19:49.227Z,100190.34
2023-05-10T02:22:18.835Z,100186.53
2023-05-10T02:24:49.847Z,100199.03
2023-05-10T02:27:19.590Z,100197.09
2023-05-10T02:29:48.893Z,100197.59
2023-05-10T02:32:18.912Z,100202.44
2023-05-10T02:34:52.993Z,100202.97
2023-05-10T02:37:22.399Z,100202.97
2023-05-10T02:39:54.751Z,100197.97
2023-05-10T02:42:26.396Z,100204.47
2023-05-10T02:44:58.318Z,100197.34
2023-05-10T02:47:26.805Z,100207.00
2023-05-10T02:49:55.006Z,100196.69
2023-05-10T02:52:26.908Z,100210.28
2023-05-10T02:55:00.615Z,100204.19
2023-05-10T02:57:32.411Z,100210.13
2023-05-10T03:00:01.262Z,100198.59
2023-05-10T03:02:31.881Z,100203.22
2023-05-10T03:05:00.173Z,100211.13
2023-05-10T03:07:28.383Z,100206.16
2023-05-10T03:09:57.857Z,100210.00
2023-05-10T03:12:34.182Z,100204.03
2023-05-10T03:15:09.443Z,100201.78
2023-05-10T03:17:50.310Z,100204.25
2023-05-10T03:20:24.635Z,100209.47
2023-05-10T03:22:58.341Z,100212.75
2023-05-10T03:25:28.506Z,100212.75
2023-05-10T03:27:58.371Z,100214.72
2023-05-10T03:30:27.058Z,100219.84
2023-05-10T03:32:55.294Z,100214.66
2023-05-10T03:35:23.367Z,100215.53
2023-05-10T03:37:51.347Z,100216.16
2023-05-10T03:40:19.507Z,100217.56
2023-05-10T03:42:48.980Z,100214.66
2023-05-10T03:45:17.200Z,100215.28
2023-05-10T03:47:45.206Z,100223.19
2023-05-10T03:50:13.230Z,100220.00
2023-05-10T03:52:41.199Z,100224.69
2023-05-10T03:55:09.709Z,100224.69
2023-05-10T03:57:37.662Z,100222.00
2023-05-10T04:00:08.361Z,100220.13
2023-05-10T04:02:36.480Z,100225.47
2023-05-10T04:05:04.736Z,100222.78
2023-05-10T04:07:32.684Z,100228.84
2023-05-10T04:10:00.657Z,100218.78
2023-05-10T04:12:28.629Z,100213.34
2023-05-10T04:14:56.616Z,100219.09
2023-05-10T04:17:26.014Z,100220.78
2023-05-10T04:19:55.825Z,100225.69
2023-05-10T04:22:23.869Z,100232.53
2023-05-10T04:24:51.898Z,100231.19
2023-05-10T04:27:19.894Z,100228.47
2023-05-10T04:29:47.899Z,100232.81
2023-05-10T04:32:17.374Z,100227.88
2023-05-10T04:34:46.840Z,100230.06
2023-05-10T04:37:14.840Z,100234.69
2023-05-10T04:39:42.925Z,100233.84
2023-05-10T04:42:11.158Z,100226.72
2023-05-10T04:44:41.875Z,100223.69
2023-05-10T04:47:14.252Z,100222.84
2023-05-10T04:49:42.287Z,100234.81
2023-05-10T04:52:12.472Z,100232.63
2023-05-10T04:54:40.489Z,100228.47
2023-05-10T04:57:08.503Z,100233.38
2023-05-10T04:59:38.279Z,100228.72
2023-05-10T05:02:07.298Z,100229.75
2023-05-10T05:04:35.341Z,100228.63
2023-05-10T05:07:03.382Z,100228.88
2023-05-10T05:09:33.278Z,100233.50
2023-05-10T05:12:01.434Z,100233.72
2023-05-10T05:14:29.424Z,100236.69
2023-05-10T05:16:57.631Z,100232.63
2023-05-10T05:19:25.693Z,100229.88
2023-05-10T05:21:53.688Z,100233.97
2023-05-10T05:24:21.710Z,100235.41
2023-05-10T05:26:51.166Z,100230.47
2023-05-10T05:29:19.196Z,100237.81
2023-05-10T05:31:47.249Z,100242.69
2023-05-10T05:34:15.239Z,100239.91
2023-05-10T05:36:43.286Z,100234.06
2023-05-10T05:39:11.281Z,100238.19
2023-05-10T05:41:39.260Z,100238.00
2023-05-10T05:44:08.660Z,100240.50
2023-05-10T05:46:36.657Z,100238.31
2023-05-10T05:49:04.733Z,100241.53
2023-05-10T05:51:33.307Z,100236.00
2023-05-10T05:54:01.151Z,100239.84
2023-05-10T05:56:29.168Z,100233.28
2023-05-10T05:58:57.249Z,100236.78
2023-05-10T06:01:26.662Z,100241.34
2023-05-10T06:03:54.722Z,100232.25
2023-05-10T06:06:22.716Z,100228.69
2023-05-10T06:08:50.811Z,100236.88
2023-05-10T06:11:18.862Z,100236.59
2023-05-10T06:13:47.253Z,100234.16
2023-05-10T06:16:15.518Z,100238.47
2023-05-10T06:18:44.980Z,100232.91
2023-05-10T06:21:12.973Z,100238.91
2023-05-10T06:23:40.982Z,100233.63
2023-05-10T06:26:08.982Z,100233.41
2023-05-10T06:28:39.345Z,100238.50
2023-05-10T06:31:07.783Z,100240.91
2023-05-10T06:33:36.324Z,100240.56
2023-05-10T06:36:06.054Z,100230.66
2023-05-10T06:38:34.427Z,100240.28
2023-05-10T06:41:02.638Z,100242.91
2023-05-10T06:43:30.781Z,100237.38
2023-05-10T06:45:58.888Z,100243.97
2023-05-10T06:48:26.918Z,100234.53
2023-05-10T06:50:54.901Z,100236.53
2023-05-10T06:53:24.256Z,100239.19
2023-05-10T06:55:52.565Z,100240.50
2023-05-10T06:58:20.561Z,100239.28
2023-05-10T07:00:48.590Z,100237.22
2023-05-10T07:03:16.967Z,100235.44
2023-05-10T07:05:45.073Z,100241.38
2023-05-10T07:08:14.434Z,100234.16
2023-05-10T07:10:43.986Z,100238.00
2023-05-10T07:13:12.143Z,100242.81
2023-05-10T07:15:40.215Z,100230.72
2023-05-10T07:18:08.370Z,100245.97
2023-05-10T07:20:36.551Z,100249.22
2023-05-10T07:23:04.553Z,100245.13
2023-05-10T07:25:32.540Z,100249.38
2023-05-10T07:28:01.961Z,100249.88
2023-05-10T07:30:30.015Z,100247.78
2023-05-10T07:32:58.103Z,100249.16
2023-05-10T07:35:26.184Z,100250.69
2023-05-10T07:37:54.152Z,100256.72
2023-05-10T07:40:22.300Z,100262.34
2023-05-10T07:42:50.323Z,100259.88
2023-05-10T07:45:20.311Z,100254.38
2023-05-10T07:47:48.349Z,100258.69
2023-05-10T07:50:16.521Z,100267.44
2023-05-10T07:52:44.546Z,100245.25
2023-05-10T07:55:12.767Z,100260.31
2023-05-10T07:57:41.104Z,100262.22
2023-05-10T08:00:10.070Z,100262.84
2023-05-10T08:02:39.588Z,100259.63
2023-05-10T08:05:08.518Z,100254.88
2023-05-10T08:07:36.646Z,100250.63
2023-05-10T08:10:04.852Z,100248.50
2023-05-10T08:12:32.944Z,100256.97
2023-05-10T08:15:01.111Z,100257.28
2023-05-10T08:17:29.141Z,100257.38
2023-05-10T08:19:58.596Z,100262.34
2023-05-10T08:22:27.137Z,100261.31
2023-05-10T08:24:55.103Z,100251.19
2023-05-10T08:27:23.084Z,100252.59
2023-05-10T08:29:51.134Z,100255.03
2023-05-10T08:32:19.602Z,100252.47
2023-05-10T08:34:47.622Z,100257.38
2023-05-10T08:37:17.566Z,100262.47
2023-05-10T08:39:46.855Z,100254.06
2023-05-10T08:42:18.962Z,100255.91
2023-05-10T08:44:50.643Z,100255.91
2023-05-10T08:47:20.442Z,100256.22
2023-05-10T08:49:52.087Z,100257.50
2023-05-10T08:52:22.454Z,100256.88
2023-05-10T08:54:50.953Z,100257.38
2023-05-10T08:57:19.435Z,100256.75
2023-05-10T08:59:47.192Z,100260.66
2023-05-10T09:02:18.591Z,100254.72
2023-05-10T09:04:46.951Z,100252.16
2023-05-10T09:07:15.160Z,100245.09
2023-05-10T09:09:44.970Z,100255.84
2023-05-10T09:12:13.294Z,100240.53
2023-05-10T09:14:42.149Z,100237.47
2023-05-10T09:17:10.384Z,100236.56
2023-05-10T09:19:38.445Z,100243.41
2023-05-10T09:22:06.454Z,100242.59
2023-05-10T09:24:34.453Z,100237.78
2023-05-10T09:27:04.025Z,100238.63
2023-05-10T09:29:41.703Z,100235.53
2023-05-10T09:32:09.863Z,100238.16
2023-05-10T09:34:44.199Z,100241.09
2023-05-10T09:37:12.697Z,100227.63
2023-05-10T09:39:42.451Z,100237.06
2023-05-10T09:42:12.625Z,100231.41
2023-05-10T09:44:41.991Z,100229.59
2023-05-10T09:47:10.342Z,100231.56
2023-05-10T09:49:38.116Z,100215.16
2023-05-10T09:52:07.730Z,100218.75
2023-05-10T09:54:37.171Z,100224.41
2023-05-10T09:57:06.365Z,100211.41
2023-05-10T09:59:36.573Z,100216.94
2023-05-10T10:02:05.305Z,100214.34
2023-05-10T10:04:33.883Z,100215.78
2023-05-10T10:07:03.964Z,100207.50
2023-05-10T10:09:32.800Z,100204.94
2023-05-10T10:12:01.723Z,100212.88
2023-05-10T10:14:30.596Z,100204.91
2023-05-10T10:17:07.407Z,100194.16
2023-05-10T10:19:38.062Z,100202.09
2023-05-10T10:22:06.709Z,100207.13
2023-05-10T10:24:35.017Z,100203.69
2023-05-10T10:27:11.371Z,100205.31
2023-05-10T10:29:46.679Z,100197.19
2023-05-10T10:32:27.755Z,100206.78
2023-05-10T10:34:57.387Z,100205.16
2023-05-10T10:37:26.242Z,100198.13
2023-05-10T10:39:54.235Z,100194.41
2023-05-10T10:42:47.022Z,100198.13
2023-05-10T10:45:15.247Z,100196.78
2023-05-10T10:47:45.290Z,100199.53
2023-05-10T10:50:14.059Z,100194.13
2023-05-10T10:52:42.993Z,100194.75
2023-05-10T10:55:12.890Z,100195.56
2023-05-10T10:57:52.764Z,100195.22
2023-05-10T11:00:26.398Z,100195.22
2023-05-10T11:02:58.586Z,100199.94
2023-05-10T11:08:21.175Z,100185.50
2023-05-10T11:11:07.865Z,100188.00
2023-05-10T11:13:36.326Z,100191.00
2023-05-10T11:16:19.265Z,100188.50
2023-05-10T11:19:01.040Z,100187.69
2023-05-10T11:21:29.289Z,100177.16
2023-05-10T11:23:58.684Z,100170.78
2023-05-10T11:26:27.469Z,100185.44
2023-05-10T11:29:00.229Z,100187.59
2023-05-10T11:31:28.864Z,100175.72
2023-05-10T11:34:00.156Z,100175.41
2023-05-10T11:36:29.881Z,100163.44
2023-05-10T11:38:58.547Z,100186.06
2023-05-10T11:41:27.392Z,100167.94
2023-05-10T11:43:56.488Z,100175.72
2023-05-10T11:46:27.037Z,100177.22
2023-05-10T11:48:56.856Z,100184.78
2023-05-10T11:51:27.231Z,100167.94
2023-05-10T11:53:56.572Z,100178.97
2023-05-10T11:56:27.382Z,100176.25
2023-05-10T11:58:57.654Z,100170.72
2023-05-10T12:01:26.527Z,100169.09
2023-05-10T12:03:56.800Z,100158.53
2023-05-10T12:06:29.131Z,100162.69
2023-05-10T12:08:57.160Z,100166.22
2023-05-10T12:11:28.330Z,100180.56
2023-05-10T12:13:57.604Z,100159.22
2023-05-10T12:16:27.656Z,100167.56
2023-05-10T12:18:58.403Z,100166.41
2023-05-10T12:21:29.800Z,100148.03
2023-05-10T12:24:03.354Z,100150.22
2023-05-10T12:26:31.823Z,100161.78
2023-05-10T12:29:14.744Z,100155.75
2023-05-10T12:31:52.654Z,100159.94
2023-05-10T12:34:27.967Z,100163.84
2023-05-10T12:36:57.713Z,100162.25
2023-05-10T12:39:26.035Z,100156.00
2023-05-10T12:41:54.031Z,100153.50
2023-05-10T12:44:22.101Z,100154.19
2023-05-10T12:46:50.256Z,100153.94
2023-05-10T12:49:20.033Z,100154.69
2023-05-10T12:51:48.048Z,100151.31
2023-05-10T12:54:17.538Z,100132.38
2023-05-10T12:56:45.560Z,100143.00
2023-05-10T12:59:13.568Z,100141.78
2023-05-10T13:01:41.660Z,100135.38
2023-05-10T13:04:09.725Z,100134.81
2023-05-10T13:06:37.792Z,100144.53
2023-05-10T13:09:05.851Z,100137.53
2023-05-10T13:11:35.370Z,100132.13
2023-05-10T13:14:04.284Z,100131.41
2023-05-10T13:16:32.464Z,100124.22
2023-05-10T13:19:00.365Z,100113.84
2023-05-10T13:21:28.997Z,100130.06
2023-05-10T13:23:57.018Z,100132.13
2023-05-10T13:26:24.991Z,100117.66
2023-05-10T13:28:56.704Z,100120.66
2023-05-10T13:31:24.851Z,100113.03
2023-05-10T13:33:53.076Z,100125.25
2023-05-10T13:36:21.141Z,100108.00
2023-05-10T13:38:49.172Z,100119.41
2023-05-10T13:41:17.293Z,100116.38
2023-05-10T13:43:45.339Z,100116.56
2023-05-10T13:46:14.938Z,100115.69
2023-05-10T13:48:42.935Z,100103.78
2023-05-10T13:51:10.957Z,100108.16
2023-05-10T13:53:38.943Z,100104.06
2023-05-10T13:56:08.525Z,100108.22
2023-05-10T13:58:37.575Z,100104.69
2023-05-10T14:01:05.890Z,100100.84
2023-05-10T14:03:35.369Z,100098.47
2023-05-10T14:06:03.707Z,100091.78
2023-05-10T14:08:31.740Z,100092.88
2023-05-10T14:10:59.788Z,100092.03
2023-05-10T14:13:27.543Z,100089.19
2023-05-10T14:15:56.030Z,100092.38
2023-05-10T14:18:24.186Z,100076.66
2023-05-10T14:20:53.594Z,100082.59
2023-05-10T14:23:25.116Z,100082.78
2023-05-10T14:25:53.290Z,100094.78
2023-05-10T14:28:21.950Z,100092.69
2023-05-10T14:30:50.306Z,100098.94
2023-05-10T14:33:19.333Z,100096.88
2023-05-10T14:35:47.811Z,100099.56
2023-05-10T14:38:17.459Z,100090.41
2023-05-10T14:40:45.465Z,100091.13
2023-05-10T14:43:13.506Z,100088.66
2023-05-10T14:45:41.543Z,100084.84
2023-05-10T14:48:13.204Z,100083.06
2023-05-10T14:50:41.195Z,100086.22
2023-05-10T14:53:09.373Z,100088.47
2023-05-10T14:55:39.387Z,100086.56
2023-05-10T14:58:07.514Z,100089.31
2023-05-10T15:00:35.584Z,100095.19
2023-05-10T15:03:04.650Z,100085.28
2023-05-10T15:05:33.118Z,100083.91
2023-05-10T15:08:01.443Z,100085.75
2023-05-10T15:10:29.423Z,100089.13
2023-05-10T15:12:58.879Z,100085.50
2023-05-10T15:15:26.916Z,100082.09
2023-05-10T15:17:54.927Z,100082.88
2023-05-10T15:20:22.957Z,100082.09
2023-05-10T15:22:50.960Z,100090.91
2023-05-10T15:25:19.391Z,100072.69
2023-05-10T15:27:47.584Z,100078.19
2023-05-10T15:30:17.096Z,100072.41
2023-05-10T15:32:45.140Z,100080.75
2023-05-10T15:35:13.487Z,100079.25
2023-05-10T15:37:41.575Z,100079.16
2023-05-10T15:40:10.339Z,100071.78
2023-05-10T15:42:38.324Z,100071.59
2023-05-10T15:45:07.255Z,100067.72
2023-05-10T15:47:36.636Z,100078.31
2023-05-10T15:50:04.865Z,100076.78
2023-05-10T15:52:32.847Z,100068.09
2023-05-10T15:55:00.814Z,100073.88
2023-05-10T15:57:28.838Z,100071.16
2023-05-10T15:59:57.074Z,100074.22
2023-05-10T16:02:25.184Z,100065.13
2023-05-10T16:04:54.650Z,100070.22
2023-05-10T16:07:22.638Z,100070.22
2023-05-10T16:09:50.856Z,100074.22
2023-05-10T16:12:18.907Z,100074.47
2023-05-10T16:14:47.054Z,100074.94
2023-05-10T16:17:15.859Z,100074.09
2023-05-10T16:19:43.935Z,100077.81
2023-05-10T16:22:13.416Z,100077.44
2023-05-10T16:24:42.469Z,100081.31
2023-05-10T16:27:10.746Z,100083.50
2023-05-10T16:29:38.766Z,100068.47
2023-05-10T16:32:07.128Z,100083.38
2023-05-10T16:34:35.192Z,100077.75
2023-05-10T16:37:03.034Z,100084.16
2023-05-10T16:39:32.433Z,100083.06
2023-05-10T16:42:01.190Z,100092.91
2023-05-10T16:44:29.220Z,100096.59
2023-05-10T16:46:57.233Z,100095.66
2023-05-10T16:49:26.548Z,100089.03
2023-05-10T16:51:54.582Z,100089.41
2023-05-10T16:54:22.899Z,100092.84
2023-05-10T16:56:52.213Z,100092.59
2023-05-10T16:59:20.192Z,100089.66
2023-05-10T17:01:48.328Z,100096.81
2023-05-10T17:04:16.572Z,100099.66
2023-05-10T17:06:44.604Z,100095.50
2023-05-10T17:09:12.634Z,100093.84
2023-05-10T17:11:40.619Z,100100.44
2023-05-10T17:14:10.261Z,100103.22
2023-05-10T17:16:38.341Z,100105.66
2023-05-10T17:19:06.385Z,100110.72
2023-05-10T17:21:34.360Z,100101.44
2023-05-10T17:24:02.326Z,100109.53
2023-05-10T17:26:30.356Z,100110.66
2023-05-10T17:28:58.429Z,100112.56
2023-05-10T17:31:28.739Z,100118.78
2023-05-10T17:33:56.732Z,100115.66
2023-05-10T17:36:24.793Z,100118.81
2023-05-10T17:38:52.831Z,100125.25
2023-05-10T17:41:21.850Z,100131.94
2023-05-10T17:43:49.906Z,100120.59
2023-05-10T17:46:20.397Z,100131.41
2023-05-10T17:48:50.725Z,100134.25
2023-05-10T17:51:18.740Z,100134.72
2023-05-10T17:53:46.774Z,100133.84
2023-05-10T17:56:14.732Z,100134.03
2023-05-10T17:58:48.636Z,100144.91
2023-05-10T18:01:16.740Z,100145.59
2023-05-10T18:03:44.752Z,100155.53
2023-05-10T18:06:15.131Z,100158.16
2023-05-10T18:08:43.150Z,100153.97
2023-05-10T18:11:11.180Z,100161.66
2023-05-10T18:13:39.522Z,100151.41
2023-05-10T18:16:08.910Z,100154.41
2023-05-10T18:18:36.951Z,100152.38
2023-05-10T18:21:05.279Z,100164.63
2023-05-10T18:23:34.426Z,100172.78
2023-05-10T18:26:03.585Z,100166.13
2023-05-10T18:28:31.574Z,100181.38
2023-05-10T18:30:59.646Z,100179.91
2023-05-10T18:33:27.785Z,100175.91
2023-05-10T18:35:55.868Z,100174.09
2023-05-10T18:38:23.952Z,100176.69
2023-05-10T18:40:53.337Z,100187.81
2023-05-10T18:43:21.443Z,100189.28
2023-05-10T18:45:51.086Z,100183.78
2023-05-10T18:48:19.443Z,100185.06
2023-05-10T18:50:47.510Z,100192.41
2023-05-10T18:53:15.478Z,100199.06
2023-05-10T18:55:44.239Z,100200.31
2023-05-10T18:58:14.212Z,100201.13
2023-05-10T19:00:42.263Z,100201.53
2023-05-10T19:03:10.531Z,100202.97
2023-05-10T19:05:38.536Z,100202.25
2023-05-10T19:08:08.499Z,100210.63
2023-05-10T19:10:36.509Z,100205.41
2023-05-10T19:13:04.506Z,100218.50
2023-05-10T19:15:34.028Z,100214.50
2023-05-10T19:18:04.228Z,100225.81
2023-05-10T19:20:32.457Z,100220.84
2023-05-10T19:23:09.595Z,100221.31
2023-05-10T19:25:39.486Z,100229.16
2023-05-10T19:28:09.667Z,100221.44
2023-05-10T19:30:39.347Z,100227.41
2023-05-10T19:33:07.442Z,100232.31
2023-05-10T19:35:35.502Z,100226.72
2023-05-10T19:38:03.487Z,100228.59
2023-05-10T19:40:31.756Z,100241.75
2023-05-10T19:43:00.556Z,100242.88
2023-05-10T19:45:28.568Z,100240.47
2023-05-10T19:47:58.012Z,100239.25
2023-05-10T19:50:26.361Z,100240.66
2023-05-10T19:52:54.315Z,100235.75
2023-05-10T19:55:30.072Z,100234.03
2023-05-10T19:58:00.548Z,100238.47
2023-05-10T20:00:28.904Z,100246.81
2023-05-10T20:02:58.509Z,100234.78
2023-05-10T20:05:26.562Z,100244.84
2023-05-10T20:07:54.758Z,100244.31
2023-05-10T20:10:24.650Z,100249.56
2023-05-10T20:12:54.403Z,100247.50
2023-05-10T20:15:24.174Z,100248.75
2023-05-10T20:17:53.833Z,100250.00
2023-05-10T20:20:25.125Z,100247.50
2023-05-10T20:22:53.072Z,100256.94
2023-05-10T20:25:21.068Z,100255.97
2023-05-10T20:27:50.953Z,100257.16
2023-05-10T20:30:19.239Z,100251.22
2023-05-10T20:32:47.454Z,100243.63
2023-05-10T20:35:15.485Z,100248.13
2023-05-10T20:37:44.876Z,100259.69
2023-05-10T20:40:13.679Z,100262.50
2023-05-10T20:42:41.803Z,100262.84
2023-05-10T20:45:11.067Z,100259.44
2023-05-10T20:47:39.112Z,100266.84
2023-05-10T20:50:08.412Z,100255.16
2023-05-10T20:52:36.448Z,100255.50
2023-05-10T20:55:06.773Z,100264.03
2023-05-10T20:57:34.776Z,100261.88
2023-05-10T21:00:02.951Z,100262.81
2023-05-10T21:02:30.957Z,100265.31
2023-05-10T21:04:59.064Z,100268.13
2023-05-10T21:07:27.127Z,100276.06
2023-05-10T21:09:55.091Z,100263.03
2023-05-10T21:12:24.542Z,100266.66
2023-05-10T21:14:52.548Z,100276.50
2023-05-10T21:17:20.526Z,100263.44
2023-05-10T21:19:48.521Z,100266.78
2023-05-10T21:22:16.591Z,100272.56
2023-05-10T21:24:45.024Z,100277.56
2023-05-10T21:27:13.114Z,100279.47
2023-05-10T21:29:42.492Z,100281.19
2023-05-10T21:32:10.694Z,100274.41
2023-05-10T21:34:38.738Z,100277.97
2023-05-10T21:37:06.874Z,100287.88
2023-05-10T21:39:35.018Z,100287.59
2023-05-10T21:42:03.764Z,100287.91
2023-05-10T21:44:33.134Z,100293.16
2023-05-10T21:47:02.569Z,100296.72
2023-05-10T21:49:30.561Z,100298.13
2023-05-10T21:51:58.529Z,100296.81
2023-05-10T21:54:26.586Z,100304.50
2023-05-10T21:56:54.605Z,100304.78
2023-05-10T21:59:22.589Z,100302.06
2023-05-10T22:01:50.648Z,100296.94
2023-05-10T22:04:20.105Z,100307.59
2023-05-10T22:06:49.151Z,100307.91
2023-05-10T22:09:17.123Z,100303.81
2023-05-10T22:11:45.118Z,100300.34
2023-05-10T22:14:13.140Z,100314.00
2023-05-10T22:16:41.235Z,100307.72
2023-05-10T22:19:09.358Z,100306.66
2023-05-10T22:21:38.792Z,100306.41
2023-05-10T22:24:07.096Z,100313.25
2023-05-10T22:26:35.104Z,100307.53
2023-05-10T22:29:04.307Z,100317.13
2023-05-10T22:31:32.540Z,100313.03
2023-05-10T22:34:00.632Z,100321.25
2023-05-10T22:36:29.148Z,100321.53
2023-05-10T22:38:58.889Z,100316.91
2023-05-10T22:41:26.904Z,100327.84
2023-05-10T22:43:54.888Z,100337.66
2023-05-10T22:46:22.936Z,100326.75
2023-05-10T22:48:50.955Z,100336.00
2023-05-10T22:51:18.925Z,100336.03
2023-05-10T22:53:46.900Z,100340.34
2023-05-10T22:56:16.286Z,100339.81
2023-05-10T22:58:44.444Z,100339.78
2023-05-10T23:01:12.484Z,100340.31
2023-05-10T23:03:40.594Z,100346.59
2023-05-10T23:06:08.711Z,100350.69
2023-05-10T23:08:36.679Z,100341.91
2023-05-10T23:11:04.718Z,100348.44
2023-05-10T23:13:34.164Z,100354.97
2023-05-10T23:16:07.226Z,100354.94
2023-05-10T23:18:35.389Z,100354.06
2023-05-10T23:21:03.753Z,100351.84
2023-05-10T23:23:32.814Z,100353.47
2023-05-10T23:26:00.854Z,100347.78
2023-05-10T23:28:28.938Z,100356.19
2023-05-10T23:30:59.568Z,100357.22
2023-05-10T23:33:27.859Z,100362.41
2023-05-10T23:35:55.929Z,100355.22
2023-05-10T23:38:23.928Z,100349.19
2023-05-10T23:40:52.361Z,100358.66
2023-05-10T23:43:21.782Z,100360.47
2023-05-10T23:45:56.285Z,100359.97
2023-05-10T23:48:26.127Z,100371.94
2023-05-10T23:50:54.341Z,100373.28
2023-05-10T23:53:22.383Z,100373.72
2023-05-10T23:55:50.368Z,100370.16
2023-05-10T23:58:18.336Z,100377.66
